createdAt,value
2023-01-03T00:01:19.872Z,101191.56
2023-01-03T00:03:47.504Z,101195.28
2023-01-03T00:06:26.659Z,101200.69
2023-01-03T00:08:56.209Z,101197.28
2023-01-03T00:11:46.481Z,101199.06
2023-01-03T00:14:19.152Z,101201.84
2023-01-03T00:16:51.373Z,101195.84
2023-01-03T00:19:19.236Z,101197.69
2023-01-03T00:21:46.175Z,101192.59
2023-01-03T00:24:13.258Z,101199.72
2023-01-03T00:26:41.347Z,101199.78
2023-01-03T00:29:09.612Z,101198.94
2023-01-03T00:31:37.342Z,101199.94
2023-01-03T00:34:04.819Z,101195.66
2023-01-03T00:36:32.226Z,101197.47
2023-01-03T00:38:59.370Z,101198.44
2023-01-03T00:41:26.463Z,101197.59
2023-01-03T00:43:53.771Z,101190.56
2023-01-03T00:46:21.625Z,101182.00
2023-01-03T00:48:48.631Z,101189.84
2023-01-03T00:51:25.864Z,101177.72
2023-01-03T00:53:55.453Z,101175.97
2023-01-03T00:56:24.979Z,101176.06
2023-01-03T00:58:52.436Z,101174.41
2023-01-03T01:01:23.770Z,101177.97
2023-01-03T01:03:53.702Z,101178.03
2023-01-03T01:06:22.490Z,101186.91
2023-01-03T01:08:51.654Z,101178.16
2023-01-03T01:11:18.943Z,101173.78
2023-01-03T01:13:47.101Z,101167.78
2023-01-03T01:16:17.796Z,101166.97
2023-01-03T01:18:47.360Z,101157.28
2023-01-03T01:21:20.566Z,101164.34
2023-01-03T01:23:48.113Z,101153.91
2023-01-03T01:26:18.515Z,101158.31
2023-01-03T01:28:46.157Z,101145.28
2023-01-03T01:31:17.464Z,101147.84
2023-01-03T01:33:44.989Z,101146.19
2023-01-03T01:36:20.923Z,101145.28
2023-01-03T01:38:48.977Z,101149.75
2023-01-03T01:41:37.689Z,101132.22
2023-01-03T01:44:23.471Z,101125.22
2023-01-03T01:46:51.591Z,101127.06
2023-01-03T01:49:23.741Z,101119.22
2023-01-03T01:51:51.101Z,101114.81
2023-01-03T01:54:19.666Z,101110.38
2023-01-03T01:56:49.440Z,101104.25
2023-01-03T01:59:16.633Z,101097.28
2023-01-03T02:01:46.441Z,101090.28
2023-01-03T02:04:29.310Z,101089.53
2023-01-03T02:06:56.949Z,101095.63
2023-01-03T02:09:24.313Z,101089.50
2023-01-03T02:12:21.677Z,101099.09
2023-01-03T02:14:51.371Z,101089.53
2023-01-03T02:17:20.863Z,101086.03
2023-01-03T02:19:56.595Z,101080.91
2023-01-03T02:22:35.370Z,101079.97
2023-01-03T02:25:17.516Z,101074.72
2023-01-03T02:28:16.398Z,101070.31
2023-01-03T02:30:48.920Z,101073.00
2023-01-03T02:33:28.145Z,101066.88
2023-01-03T02:36:06.013Z,101081.84
2023-01-03T02:39:04.220Z,101085.38
2023-01-03T02:41:37.976Z,101074.84
2023-01-03T02:44:19.056Z,101081.91
2023-01-03T02:47:12.432Z,101066.13
2023-01-03T02:49:41.841Z,101077.47
2023-01-03T02:52:13.873Z,101060.88
2023-01-03T02:54:51.460Z,101051.19
2023-01-03T02:57:23.116Z,101048.63
2023-01-03T03:00:08.478Z,101041.53
2023-01-03T03:02:37.810Z,101043.34
2023-01-03T03:05:12.750Z,101037.22
2023-01-03T03:07:41.203Z,101038.06
2023-01-03T03:10:30.158Z,101032.94
2023-01-03T03:13:13.757Z,101025.94
2023-01-03T03:15:59.337Z,101038.13
2023-01-03T03:18:39.100Z,101028.44
2023-01-03T03:21:28.424Z,101020.66
2023-01-03T03:24:26.100Z,101020.53
2023-01-03T03:26:56.367Z,101013.41
2023-01-03T03:29:23.301Z,101010.84
2023-01-03T03:31:52.035Z,101011.72
2023-01-03T03:34:27.930Z,100992.31
2023-01-03T03:37:27.352Z,100987.91
2023-01-03T03:40:14.002Z,100989.75
2023-01-03T03:42:59.318Z,100978.34
2023-01-03T03:45:29.151Z,100985.19
2023-01-03T03:48:01.979Z,100972.94
2023-01-03T03:50:38.277Z,100967.69
2023-01-03T03:53:08.689Z,100945.72
2023-01-03T03:55:44.114Z,100943.97
2023-01-03T03:58:49.759Z,100943.97
2023-01-03T04:01:20.588Z,100939.53
2023-01-03T04:03:50.415Z,100929.81
2023-01-03T04:06:28.758Z,100928.91
2023-01-03T04:08:55.603Z,100911.38
2023-01-03T04:11:22.607Z,100898.19
2023-01-03T04:13:49.440Z,100895.56
2023-01-03T04:16:16.398Z,100892.88
2023-01-03T04:18:43.402Z,100890.28
2023-01-03T04:21:13.245Z,100883.25
2023-01-03T04:23:44.040Z,100883.19
2023-01-03T04:26:10.877Z,100878.75
2023-01-03T04:28:37.649Z,100868.19
2023-01-03T04:31:04.554Z,100869.19
2023-01-03T04:33:31.420Z,100869.06
2023-01-03T04:35:58.199Z,100877.84
2023-01-03T04:38:25.051Z,100870.00
2023-01-03T04:40:51.905Z,100870.91
2023-01-03T04:43:37.711Z,100881.34
2023-01-03T04:46:04.749Z,100877.91
2023-01-03T04:48:31.611Z,100871.69
2023-01-03T04:51:00.197Z,100859.28
2023-01-03T04:53:27.999Z,100853.19
2023-01-03T04:55:57.087Z,100847.09
2023-01-03T04:58:24.119Z,100853.19
2023-01-03T05:00:51.523Z,100835.56
2023-01-03T05:03:23.995Z,100835.66
2023-01-03T05:05:52.703Z,100830.28
2023-01-03T05:08:19.665Z,100820.63
2023-01-03T05:10:46.519Z,100818.91
2023-01-03T05:13:13.333Z,100808.50
2023-01-03T05:15:40.422Z,100802.25
2023-01-03T05:18:07.242Z,100797.88
2023-01-03T05:20:56.020Z,100790.91
2023-01-03T05:23:42.393Z,100794.31
2023-01-03T05:26:15.822Z,100793.47
2023-01-03T05:28:45.311Z,100791.69
2023-01-03T05:31:12.726Z,100774.94
2023-01-03T05:33:41.026Z,100765.34
2023-01-03T05:36:09.406Z,100765.34
2023-01-03T05:38:37.429Z,100765.34
2023-01-03T05:41:05.570Z,100743.47
2023-01-03T05:43:32.550Z,100749.50
2023-01-03T05:45:59.472Z,100739.88
2023-01-03T05:48:27.264Z,100750.44
2023-01-03T05:50:57.800Z,100746.88
2023-01-03T05:53:25.737Z,100745.16
2023-01-03T05:55:52.588Z,100729.47
2023-01-03T05:58:19.738Z,100720.56
2023-01-03T06:00:46.590Z,100726.78
2023-01-03T06:03:13.467Z,100719.75
2023-01-03T06:05:46.105Z,100714.38
2023-01-03T06:08:16.637Z,100711.75
2023-01-03T06:10:43.484Z,100713.53
2023-01-03T06:13:10.412Z,100710.03
2023-01-03T06:15:37.262Z,100696.78
2023-01-03T06:18:04.292Z,100683.66
2023-01-03T06:20:31.219Z,100677.56
2023-01-03T06:22:58.184Z,100667.00
2023-01-03T06:25:25.671Z,100656.47
2023-01-03T06:27:52.517Z,100655.59
2023-01-03T06:30:19.475Z,100666.41
2023-01-03T06:32:46.322Z,100662.63
2023-01-03T06:35:13.646Z,100648.28
2023-01-03T06:37:40.503Z,100641.91
2023-01-03T06:40:08.000Z,100638.25
2023-01-03T06:42:43.393Z,100629.38
2023-01-03T06:45:32.070Z,100633.66
2023-01-03T06:48:21.754Z,100620.81
2023-01-03T06:51:07.405Z,100615.53
2023-01-03T06:53:37.632Z,100620.75
2023-01-03T06:56:05.673Z,100616.34
2023-01-03T06:58:32.628Z,100608.56
2023-01-03T07:01:04.185Z,100605.47
2023-01-03T07:03:32.348Z,100591.91
2023-01-03T07:05:59.540Z,100589.03
2023-01-03T07:08:26.441Z,100591.44
2023-01-03T07:10:54.293Z,100589.53
2023-01-03T07:13:39.358Z,100585.31
2023-01-03T07:16:06.346Z,100585.31
2023-01-03T07:18:34.204Z,100579.72
2023-01-03T07:21:01.070Z,100579.47
2023-01-03T07:23:27.863Z,100562.63
2023-01-03T07:25:55.886Z,100551.00
2023-01-03T07:28:22.714Z,100531.50
2023-01-03T07:30:49.752Z,100530.41
2023-01-03T07:33:18.351Z,100524.97
2023-01-03T07:35:45.933Z,100522.94
2023-01-03T07:38:13.821Z,100507.03
2023-01-03T07:40:40.954Z,100502.66
2023-01-03T07:43:33.804Z,100504.53
2023-01-03T07:46:00.709Z,100502.81
2023-01-03T07:48:27.639Z,100499.09
2023-01-03T07:50:58.161Z,100485.97
2023-01-03T07:53:25.777Z,100492.09
2023-01-03T07:55:52.857Z,100475.66
2023-01-03T07:58:19.743Z,100470.66
2023-01-03T08:00:46.635Z,100463.75
2023-01-03T08:03:14.661Z,100451.06
2023-01-03T08:05:41.529Z,100446.91
2023-01-03T08:08:09.391Z,100439.47
2023-01-03T08:10:54.851Z,100426.03
2023-01-03T08:13:22.016Z,100429.28
2023-01-03T08:15:52.044Z,100431.75
2023-01-03T08:18:27.143Z,100434.63
2023-01-03T08:20:55.798Z,100423.13
2023-01-03T08:23:23.717Z,100415.22
2023-01-03T08:25:50.932Z,100407.81
2023-01-03T08:28:18.213Z,100404.22
2023-01-03T08:30:48.805Z,100403.88
2023-01-03T08:33:18.689Z,100395.84
2023-01-03T08:36:07.283Z,100385.97
2023-01-03T08:38:45.837Z,100377.13
2023-01-03T08:41:16.757Z,100368.06
2023-01-03T08:43:46.848Z,100360.81
2023-01-03T08:46:16.377Z,100346.66
2023-01-03T08:48:44.087Z,100349.22
2023-01-03T08:51:11.151Z,100354.22
2023-01-03T08:53:38.130Z,100346.22
2023-01-03T08:56:05.273Z,100349.63
2023-01-03T08:58:32.468Z,100354.81
2023-01-03T09:01:04.153Z,100335.28
2023-01-03T09:03:31.181Z,100350.19
2023-01-03T09:06:03.213Z,100347.06
2023-01-03T09:08:31.451Z,100339.00
2023-01-03T09:10:58.958Z,100329.41
2023-01-03T09:13:25.851Z,100343.38
2023-01-03T09:16:01.272Z,100344.41
2023-01-03T09:18:28.135Z,100339.88
2023-01-03T09:20:55.083Z,100342.50
2023-01-03T09:23:21.968Z,100337.22
2023-01-03T09:25:48.825Z,100337.13
2023-01-03T09:28:15.709Z,100334.47
2023-01-03T09:30:42.553Z,100326.56
2023-01-03T09:33:10.953Z,100324.78
2023-01-03T09:35:38.361Z,100316.84
2023-01-03T09:38:06.115Z,100322.22
2023-01-03T09:40:38.474Z,100316.00
2023-01-03T09:43:19.816Z,100316.78
2023-01-03T09:45:55.344Z,100314.19
2023-01-03T09:48:36.230Z,100319.22
2023-01-03T09:51:19.743Z,100318.44
2023-01-03T09:54:08.147Z,100307.72
2023-01-03T09:56:53.979Z,100305.16
2023-01-03T09:59:39.434Z,100304.66
2023-01-03T10:02:49.387Z,100295.06
2023-01-03T10:05:36.725Z,100298.63
2023-01-03T10:08:25.832Z,100301.66
2023-01-03T10:11:12.471Z,100294.44
2023-01-03T10:14:00.463Z,100291.69
2023-01-03T10:16:56.497Z,100285.47
2023-01-03T10:19:32.084Z,100287.06
2023-01-03T10:22:14.306Z,100272.03
2023-01-03T10:25:01.581Z,100272.72
2023-01-03T10:27:33.463Z,100271.69
2023-01-03T10:30:07.031Z,100281.22
2023-01-03T10:32:44.572Z,100281.88
2023-01-03T10:35:17.696Z,100267.53
2023-01-03T10:37:45.515Z,100274.53
2023-01-03T10:40:14.535Z,100266.50
2023-01-03T10:42:42.775Z,100273.50
2023-01-03T10:45:19.207Z,100275.66
2023-01-03T10:47:58.602Z,100273.63
2023-01-03T10:50:25.820Z,100267.09
2023-01-03T10:53:04.510Z,100258.91
2023-01-03T10:55:35.161Z,100262.13
2023-01-03T10:58:04.616Z,100244.34
2023-01-03T11:00:31.689Z,100252.09
2023-01-03T11:03:10.148Z,100243.97
2023-01-03T11:05:38.446Z,100253.31
2023-01-03T11:08:13.763Z,100246.75
2023-01-03T11:10:56.110Z,100241.09
2023-01-03T11:13:40.004Z,100234.75
2023-01-03T11:16:16.389Z,100239.00
2023-01-03T11:18:44.936Z,100229.28
2023-01-03T11:21:14.802Z,100215.84
2023-01-03T11:23:53.161Z,100220.28
2023-01-03T11:26:38.215Z,100224.47
2023-01-03T11:29:24.380Z,100212.81
2023-01-03T11:32:22.058Z,100217.81
2023-01-03T11:35:23.436Z,100220.09
2023-01-03T11:37:51.491Z,100210.22
2023-01-03T11:40:27.200Z,100209.75
2023-01-03T11:43:00.698Z,100211.00
2023-01-03T11:45:56.397Z,100209.38
2023-01-03T11:48:28.958Z,100199.97
2023-01-03T11:51:02.050Z,100190.41
2023-01-03T11:53:40.201Z,100187.84
2023-01-03T11:56:42.069Z,100180.03
2023-01-03T11:59:41.655Z,100172.41
2023-01-03T12:02:51.372Z,100167.97
2023-01-03T12:05:21.553Z,100173.34
2023-01-03T12:08:17.031Z,100159.25
2023-01-03T12:10:59.364Z,100154.09
2023-01-03T12:14:08.345Z,100145.22
2023-01-03T12:17:00.228Z,100145.97
2023-01-03T12:19:43.832Z,100146.72
2023-01-03T12:22:34.333Z,100145.84
2023-01-03T12:25:28.728Z,100138.03
2023-01-03T12:28:11.273Z,100149.34
2023-01-03T12:30:44.918Z,100145.97
2023-01-03T12:33:33.395Z,100147.66
2023-01-03T12:36:00.456Z,100134.53
2023-01-03T12:38:37.924Z,100135.38
2023-01-03T12:41:27.191Z,100132.81
2023-01-03T12:44:04.287Z,100128.59
2023-01-03T12:46:41.774Z,100121.63
2023-01-03T12:49:24.189Z,100124.16
2023-01-03T12:51:51.148Z,100145.97
2023-01-03T12:54:43.380Z,100140.03
2023-01-03T12:57:39.653Z,100138.44
2023-01-03T13:00:22.227Z,100126.56
2023-01-03T13:03:05.446Z,100125.19
2023-01-03T13:05:53.328Z,100126.59
2023-01-03T13:08:52.107Z,100107.06
2023-01-03T13:11:27.794Z,100108.97
2023-01-03T13:13:57.866Z,100102.75
2023-01-03T13:16:37.009Z,100103.00
2023-01-03T13:19:22.284Z,100094.56
2023-01-03T13:21:56.140Z,100087.19
2023-01-03T13:24:44.975Z,100081.63
2023-01-03T13:27:18.127Z,100085.66
2023-01-03T13:29:51.166Z,100080.25
2023-01-03T13:32:24.243Z,100074.78
2023-01-03T13:34:54.306Z,100068.44
2023-01-03T13:37:23.351Z,100065.59
2023-01-03T13:40:11.331Z,100074.97
2023-01-03T13:42:40.149Z,100056.63
2023-01-03T13:45:30.015Z,100065.28
2023-01-03T13:47:57.807Z,100048.50
2023-01-03T13:50:34.344Z,100049.97
2023-01-03T13:53:21.664Z,100049.97
2023-01-03T13:56:17.707Z,100044.88
2023-01-03T13:58:54.054Z,100037.91
2023-01-03T14:01:36.233Z,100036.00
2023-01-03T14:04:18.175Z,100037.47
2023-01-03T14:06:45.294Z,100037.47
2023-01-03T14:09:30.863Z,100027.75
2023-01-03T14:12:22.558Z,100026.72
2023-01-03T14:14:59.539Z,100019.75
2023-01-03T14:17:36.620Z,100012.53
2023-01-03T14:20:09.779Z,100012.53
2023-01-03T14:22:48.720Z,100007.25
2023-01-03T14:25:37.836Z,100000.06
2023-01-03T14:28:26.538Z,99996.28
2023-01-03T14:30:56.769Z,99989.94
2023-01-03T14:33:26.099Z,99994.91
2023-01-03T14:36:17.062Z,99986.75
2023-01-03T14:38:59.909Z,99981.06
2023-01-03T14:41:38.405Z,99976.38
2023-01-03T14:44:16.675Z,99980.41
2023-01-03T14:46:56.107Z,99982.13
2023-01-03T14:49:39.774Z,99978.28
2023-01-03T14:52:13.540Z,99978.09
2023-01-03T14:54:44.886Z,99970.88
2023-01-03T14:57:20.763Z,99963.72
2023-01-03T14:59:49.003Z,99957.34
2023-01-03T15:02:16.648Z,99947.38
2023-01-03T15:04:46.119Z,99937.66
2023-01-03T15:07:33.836Z,99942.59
2023-01-03T15:10:12.688Z,99943.38
2023-01-03T15:12:44.235Z,99929.91
2023-01-03T15:15:39.298Z,99932.31
2023-01-03T15:18:09.650Z,99924.16
2023-01-03T15:20:40.548Z,99911.78
2023-01-03T15:23:08.663Z,99902.06
2023-01-03T15:25:39.355Z,99894.84
2023-01-03T15:28:52.847Z,99887.53
2023-01-03T15:31:28.691Z,99889.31
2023-01-03T15:34:23.756Z,99884.03
2023-01-03T15:37:17.245Z,99882.78
2023-01-03T15:39:49.983Z,99879.75
2023-01-03T15:42:47.837Z,99879.03
2023-01-03T15:45:22.862Z,99877.97
2023-01-03T15:47:53.119Z,99874.59
2023-01-03T15:50:20.783Z,99864.31
2023-01-03T15:52:49.192Z,99861.31
2023-01-03T15:55:18.285Z,99854.88
2023-01-03T15:57:51.482Z,99851.66
2023-01-03T16:00:21.882Z,99850.25
2023-01-03T16:02:50.097Z,99837.88
2023-01-03T16:05:22.588Z,99833.22
2023-01-03T16:07:51.615Z,99842.09
2023-01-03T16:10:18.756Z,99834.94
2023-01-03T16:12:45.869Z,99833.44
2023-01-03T16:15:22.714Z,99830.22
2023-01-03T16:17:51.379Z,99825.34
2023-01-03T16:20:20.325Z,99818.97
2023-01-03T16:23:00.482Z,99810.94
2023-01-03T16:25:29.474Z,99812.53
2023-01-03T16:27:56.554Z,99806.91
2023-01-03T16:30:24.865Z,99789.09
2023-01-03T16:32:52.121Z,99793.19
2023-01-03T16:35:21.007Z,99794.91
2023-01-03T16:37:48.516Z,99787.56
2023-01-03T16:40:18.564Z,99781.44
2023-01-03T16:42:45.704Z,99776.22
2023-01-03T16:45:13.878Z,99760.53
2023-01-03T16:47:43.229Z,99754.16
2023-01-03T16:50:19.732Z,99753.69
2023-01-03T16:52:56.098Z,99744.56
2023-01-03T16:55:35.962Z,99739.06
2023-01-03T16:58:03.047Z,99734.34
2023-01-03T17:00:34.335Z,99726.06
2023-01-03T17:03:03.293Z,99723.06
2023-01-03T17:05:36.438Z,99727.19
2023-01-03T17:08:08.478Z,99729.47
2023-01-03T17:10:39.341Z,99713.44
2023-01-03T17:13:12.375Z,99711.41
2023-01-03T17:15:42.935Z,99714.91
2023-01-03T17:18:26.988Z,99709.63
2023-01-03T17:21:05.772Z,99704.53
2023-01-03T17:23:40.958Z,99700.81
2023-01-03T17:26:15.576Z,99691.16
2023-01-03T17:28:45.090Z,99686.09
2023-01-03T17:31:25.737Z,99682.03
2023-01-03T17:33:55.628Z,99675.03
2023-01-03T17:36:33.068Z,99667.72
2023-01-03T17:39:04.586Z,99665.06
2023-01-03T17:41:55.273Z,99664.91
2023-01-03T17:44:23.234Z,99648.22
2023-01-03T17:47:11.811Z,99638.41
2023-01-03T17:49:39.797Z,99639.63
2023-01-03T17:52:10.029Z,99629.16
2023-01-03T17:54:40.061Z,99623.75
2023-01-03T17:57:11.421Z,99619.38
2023-01-03T17:59:38.656Z,99616.75
2023-01-03T18:02:26.320Z,99618.81
2023-01-03T18:07:41.292Z,99591.47
2023-01-03T18:10:18.913Z,99595.91
2023-01-03T18:12:46.013Z,99583.63
2023-01-03T18:15:22.025Z,99582.44
2023-01-03T18:17:51.201Z,99578.78
2023-01-03T18:20:19.680Z,99577.72
2023-01-03T18:22:48.120Z,99569.53
2023-01-03T18:25:23.834Z,99555.19
2023-01-03T18:27:55.746Z,99561.09
2023-01-03T18:30:23.587Z,99559.16
2023-01-03T18:32:50.900Z,99554.34
2023-01-03T18:35:28.456Z,99551.44
2023-01-03T18:37:58.059Z,99541.53
2023-01-03T18:40:30.790Z,99535.19
2023-01-03T18:43:13.263Z,99535.03
2023-01-03T18:45:42.315Z,99534.81
2023-01-03T18:48:18.553Z,99526.72
2023-01-03T18:50:53.679Z,99521.56
2023-01-03T18:53:28.987Z,99517.91
2023-01-03T18:55:56.831Z,99517.66
2023-01-03T18:58:33.137Z,99511.16
2023-01-03T19:01:01.123Z,99514.38
2023-01-03T19:03:30.812Z,99508.72
2023-01-03T19:06:00.043Z,99502.44
2023-01-03T19:08:33.433Z,99496.19
2023-01-03T19:11:08.329Z,99493.13
2023-01-03T19:13:51.175Z,99490.38
2023-01-03T19:16:31.428Z,99472.53
2023-01-03T19:19:01.102Z,99450.59
2023-01-03T19:21:37.149Z,99452.16
2023-01-03T19:24:37.955Z,99453.50
2023-01-03T19:27:21.337Z,99447.94
2023-01-03T19:29:49.581Z,99438.03
2023-01-03T19:32:24.756Z,99431.63
2023-01-03T19:34:53.893Z,99421.97
2023-01-03T19:37:21.533Z,99417.38
2023-01-03T19:39:51.165Z,99413.50
2023-01-03T19:42:40.255Z,99407.34
2023-01-03T19:45:29.529Z,99405.53
2023-01-03T19:48:01.366Z,99397.59
2023-01-03T19:50:34.748Z,99396.50
2023-01-03T19:53:04.743Z,99387.81
2023-01-03T19:55:38.149Z,99385.16
2023-01-03T19:58:18.421Z,99385.88
2023-01-03T20:00:48.433Z,99382.50
2023-01-03T20:03:34.260Z,99387.81
2023-01-03T20:06:02.185Z,99386.72
2023-01-03T20:08:30.029Z,99380.56
2023-01-03T20:11:01.174Z,99378.63
2023-01-03T20:13:29.105Z,99368.25
2023-01-03T20:16:00.907Z,99362.41
2023-01-03T20:18:40.429Z,99364.22
2023-01-03T20:21:21.936Z,99360.44
2023-01-03T20:23:54.836Z,99346.34
2023-01-03T20:26:29.748Z,99328.75
2023-01-03T20:28:58.961Z,99331.13
2023-01-03T20:31:27.477Z,99324.84
2023-01-03T20:33:54.829Z,99320.50
2023-01-03T20:36:34.763Z,99307.41
2023-01-03T20:39:02.445Z,99300.41
2023-01-03T20:41:38.613Z,99304.59
2023-01-03T20:44:09.229Z,99294.97
2023-01-03T20:46:39.625Z,99300.28
2023-01-03T20:49:15.235Z,99295.94
2023-01-03T20:51:43.929Z,99293.44
2023-01-03T20:54:13.872Z,99276.94
2023-01-03T20:56:42.583Z,99284.75
2023-01-03T20:59:18.889Z,99274.13
2023-01-03T21:01:49.152Z,99267.03
2023-01-03T21:04:17.547Z,99268.00
2023-01-03T21:06:46.811Z,99268.13
2023-01-03T21:09:15.666Z,99257.50
2023-01-03T21:11:48.989Z,99263.91
2023-01-03T21:14:19.190Z,99250.16
2023-01-03T21:16:49.422Z,99252.13
2023-01-03T21:19:24.153Z,99251.81
2023-01-03T21:21:55.008Z,99243.53
2023-01-03T21:24:25.779Z,99245.47
2023-01-03T21:26:54.943Z,99246.84
2023-01-03T21:29:24.048Z,99244.00
2023-01-03T21:31:52.908Z,99243.28
2023-01-03T21:34:23.396Z,99238.06
2023-01-03T21:36:51.330Z,99230.75
2023-01-03T21:39:19.575Z,99219.09
2023-01-03T21:42:06.821Z,99220.34
2023-01-03T21:44:36.486Z,99206.16
2023-01-03T21:47:03.753Z,99213.41
2023-01-03T21:49:32.046Z,99208.47
2023-01-03T21:51:59.617Z,99211.63
2023-01-03T21:54:27.449Z,99205.88
2023-01-03T21:56:55.100Z,99207.19
2023-01-03T21:59:22.612Z,99199.75
2023-01-03T22:02:08.653Z,99190.41
2023-01-03T22:04:38.090Z,99192.44
2023-01-03T22:07:06.432Z,99192.94
2023-01-03T22:09:52.234Z,99194.88
2023-01-03T22:12:19.842Z,99186.47
2023-01-03T22:14:48.024Z,99172.78
2023-01-03T22:17:15.955Z,99180.88
2023-01-03T22:19:43.016Z,99162.69
2023-01-03T22:22:10.917Z,99150.00
2023-01-03T22:24:38.252Z,99126.53
2023-01-03T22:27:05.781Z,99130.28
2023-01-03T22:29:33.431Z,99127.03
2023-01-03T22:32:00.694Z,99122.84
2023-01-03T22:34:28.434Z,99131.75
2023-01-03T22:36:55.696Z,99131.03
2023-01-03T22:39:23.426Z,99133.19
2023-01-03T22:41:50.724Z,99127.19
2023-01-03T22:44:17.979Z,99113.50
2023-01-03T22:46:45.650Z,99119.75
2023-01-03T22:49:12.889Z,99113.75
2023-01-03T22:51:40.428Z,99119.28
2023-01-03T22:54:10.810Z,99118.56
2023-01-03T22:56:38.932Z,99124.09
2023-01-03T22:59:06.304Z,99111.13
2023-01-03T23:01:33.944Z,99108.75
2023-01-03T23:04:02.054Z,99095.78
2023-01-03T23:06:33.074Z,99091.44
2023-01-03T23:09:03.972Z,99085.53
2023-01-03T23:11:51.787Z,99057.69
2023-01-03T23:14:23.571Z,99065.72
2023-01-03T23:16:52.980Z,99049.16
2023-01-03T23:19:23.379Z,99039.69
2023-01-03T23:21:52.475Z,99033.69
2023-01-03T23:24:23.165Z,99027.22
2023-01-03T23:26:52.891Z,99013.88
2023-01-03T23:29:20.321Z,99012.31
2023-01-03T23:31:47.645Z,99005.50
2023-01-03T23:34:15.045Z,99005.72
2023-01-03T23:36:46.024Z,98995.41
2023-01-03T23:39:16.109Z,98999.72
2023-01-03T23:41:43.746Z,98990.38
2023-01-03T23:44:11.453Z,98983.41
2023-01-03T23:46:39.143Z,98966.84
2023-01-03T23:49:06.613Z,98967.22
2023-01-03T23:51:33.671Z,98955.69
2023-01-03T23:54:00.774Z,98954.16
2023-01-03T23:56:27.953Z,98946.47
2023-01-03T23:58:55.040Z,98927.28
